Airport View

Enter AWOS ICAO identifier for current METAR.

ex. KFNL

KJES 270001Z AUTO 00000KT 10SM OVC090 13/05 A3005 RMK AO2

27 Jan 2020 00:26

Frequency: 118.125

Phone: 912 427 0855

Other Area AWOS: KLHW - KBQK - KBHC - KAMG

TAF KSSI 262320Z 2700/2724 VRB02KT P6SM OVC090 FM270500 VRB02KT P6SM VCSH SCT015 OVC050 FM271000 VRB03KT 5SM -SHRA BR OVC015 FM271500 23006KT P6SM OVC050